Time;durP1;ratioP1;P1;durP2;ratioP2;P2;SDS_P1;SDS_P2;PMS_P1;PMS_P2;Temp;Humidity;BMP_temperature;BMP_pressure;BME280_temperature;BME280_humidity;BME280_pressure;Samples;Min_cycle;Max_cycle;Signal;HPM_P1;HPM_P2
2023/11/19 00:00:27;;;;;;;25.10;18.80;;;;;;;1.30;100.00;99475.08;109589;1251;58443;-72
2023/11/19 00:03:13;;;;;;;22.60;17.30;;;;;;;1.27;100.00;99473.39;109601;1251;61688;-72
2023/11/19 00:05:41;;;;;;;22.70;17.00;;;;;;;1.20;100.00;99468.13;109590;1251;66500;-72
2023/11/19 00:08:08;;;;;;;24.40;17.30;;;;;;;1.13;100.00;99469.52;109568;1251;58937;-72
2023/11/19 00:10:35;;;;;;;24.80;17.90;;;;;;;1.09;100.00;99473.45;109642;1251;63797;-72
2023/11/19 00:13:02;;;;;;;23.00;18.80;;;;;;;1.07;100.00;99473.48;109453;1251;58259;-73
2023/11/19 00:15:29;;;;;;;29.70;20.70;;;;;;;1.04;100.00;99474.23;109577;1251;58218;-73
2023/11/19 00:17:55;;;;;;;26.70;19.40;;;;;;;1.02;100.00;99469.39;109598;1251;65240;-74
2023/11/19 00:20:22;;;;;;;30.00;21.90;;;;;;;1.00;100.00;99466.79;109628;1251;60096;-73
2023/11/19 00:22:52;;;;;;;27.20;19.60;;;;;;;0.98;100.00;99463.17;109607;1251;64124;-73
2023/11/19 00:25:19;;;;;;;27.50;21.30;;;;;;;0.94;100.00;99457.30;109605;1251;58223;-73
2023/11/19 00:27:45;;;;;;;33.20;22.00;;;;;;;0.89;100.00;99450.94;109643;1251;58229;-74
2023/11/19 00:30:13;;;;;;;29.30;21.30;;;;;;;0.86;100.00;99453.43;109618;1253;64094;-74
2023/11/19 00:32:41;;;;;;;32.70;23.30;;;;;;;0.85;100.00;99449.09;109601;1252;60255;-73
2023/11/19 00:35:08;;;;;;;33.30;23.60;;;;;;;0.80;100.00;99439.90;109530;1251;64018;-72
2023/11/19 00:37:34;;;;;;;36.80;24.10;;;;;;;0.78;100.00;99436.63;109578;1251;58243;-72
2023/11/19 00:40:05;;;;;;;36.90;24.80;;;;;;;0.77;100.00;99439.27;109578;1253;59050;-72
2023/11/19 00:42:31;;;;;;;34.60;23.30;;;;;;;0.76;100.00;99435.27;109413;1252;63705;-72
2023/11/19 00:44:58;;;;;;;31.90;23.40;;;;;;;0.75;100.00;99438.98;109631;1253;59926;-72
2023/11/19 00:47:25;;;;;;;33.50;24.00;;;;;;;0.74;100.00;99436.19;109358;1253;65245;-71
2023/11/19 00:49:52;;;;;;;34.20;24.60;;;;;;;0.74;100.00;99432.70;109568;1251;58194;-72
2023/11/19 00:52:19;;;;;;;31.70;22.90;;;;;;;0.74;100.00;99433.05;109586;1253;60301;-71
2023/11/19 00:54:45;;;;;;;32.20;24.10;;;;;;;0.72;100.00;99435.88;109484;1253;66100;-72
2023/11/19 00:57:12;;;;;;;34.10;25.10;;;;;;;0.71;100.00;99434.67;109592;1253;58240;-72
2023/11/19 00:59:42;;;;;;;35.10;25.70;;;;;;;0.71;100.00;99434.34;109576;1252;63849;-72
2023/11/19 01:02:08;;;;;;;33.90;24.90;;;;;;;0.72;100.00;99434.83;109550;1253;58150;-72
2023/11/19 01:04:36;;;;;;;39.00;26.50;;;;;;;0.71;100.00;99432.23;109624;1251;58191;-71
2023/11/19 01:07:06;;;;;;;41.40;26.00;;;;;;;0.70;100.00;99426.31;109552;1253;65273;-72
2023/11/19 01:09:34;;;;;;;;;;;;;;;0.70;100.00;99423.15;109584;1252;58653;-72
2023/11/19 01:12:02;;;;;;;43.40;28.80;;;;;;;0.71;100.00;99426.64;109471;1252;63748;-72
2023/11/19 01:14:29;;;;;;;41.70;28.10;;;;;;;0.73;100.00;99425.89;109593;1252;58193;-73
2023/11/19 01:16:55;;;;;;;42.30;29.60;;;;;;;0.74;100.00;99429.36;107338;1252;1002838;-73
2023/11/19 01:19:22;;;;;;;41.10;27.70;;;;;;;0.74;100.00;99427.63;109603;1251;64010;-73
2023/11/19 01:21:50;;;;;;;42.80;28.70;;;;;;;0.72;100.00;99433.42;109618;1253;59857;-73
2023/11/19 01:24:17;;;;;;;42.20;29.40;;;;;;;0.72;100.00;99429.25;109627;1251;62632;-74
2023/11/19 01:26:46;;;;;;;42.20;29.70;;;;;;;0.75;100.00;99423.92;109555;1251;58240;-73
2023/11/19 01:29:16;;;;;;;40.00;29.90;;;;;;;0.78;100.00;99419.83;109551;1251;58602;-73
2023/11/19 01:31:45;;;;;;;41.00;30.80;;;;;;;0.80;100.00;99419.27;109395;1251;63800;-73
2023/11/19 01:34:11;;;;;;;34.80;26.60;;;;;;;0.83;100.00;99420.95;109574;1251;59043;-73
2023/11/19 01:36:39;;;;;;;41.10;30.90;;;;;;;0.85;100.00;99420.23;109630;1251;64101;-73
2023/11/19 01:39:06;;;;;;;39.00;26.50;;;;;;;0.85;100.00;99418.83;109517;1251;59837;-73
2023/11/19 01:41:36;;;;;;;36.70;25.80;;;;;;;0.85;100.00;99409.38;109444;1251;58219;-73
2023/11/19 01:44:03;;;;;;;;;;;;;;;0.85;100.00;99392.77;109612;1251;64050;-73
2023/11/19 01:46:32;;;;;;;37.70;24.40;;;;;;;0.84;100.00;99388.92;109644;1251;61454;-73
2023/11/19 01:49:00;;;;;;;35.80;26.00;;;;;;;0.84;100.00;99390.32;109574;1253;63871;-73
2023/11/19 01:51:27;;;;;;;39.10;26.70;;;;;;;0.84;100.00;99396.63;109326;1251;58281;-73
2023/11/19 01:53:56;;;;;;;44.90;29.00;;;;;;;0.83;100.00;99392.98;109580;1251;58182;-73
2023/11/19 01:56:24;;;;;;;44.80;30.70;;;;;;;0.81;100.00;99374.64;109612;1251;65332;-73
2023/11/19 01:58:53;;;;;;;45.50;33.50;;;;;;;0.82;100.00;99363.98;109559;1251;60285;-73
2023/11/19 02:01:20;;;;;;;51.40;35.10;;;;;;;0.81;100.00;99359.77;109565;1251;64124;-73
2023/11/19 02:03:47;;;;;;;48.90;34.80;;;;;;;0.85;100.00;99354.98;109589;1251;58228;-73
2023/11/19 02:06:14;;;;;;;52.70;34.80;;;;;;;0.87;100.00;99346.36;109531;1251;58222;-73
2023/11/19 02:08:40;;;;;;;50.60;34.90;;;;;;;0.86;100.00;99341.13;109644;1251;74967;-73
2023/11/19 02:11:07;;;;;;;49.90;35.20;;;;;;;0.85;100.00;99341.33;109600;1251;58939;-73
2023/11/19 02:13:37;;;;;;;48.20;35.40;;;;;;;0.85;100.00;99333.46;109557;1251;71424;-73
2023/11/19 02:16:04;;;;;;;46.50;34.60;;;;;;;0.82;100.00;99323.90;109330;1251;58519;-73
2023/11/19 02:18:31;;;;;;;45.20;34.50;;;;;;;0.78;100.00;99317.70;109221;1251;58392;-73
2023/11/19 02:20:59;;;;;;;44.00;31.90;;;;;;;0.74;100.00;99311.33;109678;1252;64955;-73
2023/11/19 02:23:31;;;;;;;48.60;33.20;;;;;;;0.69;100.00;99308.84;109600;1251;58603;-73
2023/11/19 02:26:22;;;;;;;50.40;33.30;;;;;;;0.63;100.00;99302.98;109538;1251;64981;-73
2023/11/19 02:28:49;;;;;;;44.30;31.60;;;;;;;0.56;100.00;99294.75;109588;1251;58212;-73
2023/11/19 02:31:16;;;;;;;39.70;29.60;;;;;;;0.48;100.00;99283.75;109501;1251;58108;-73
2023/11/19 02:33:42;;;;;;;43.30;30.10;;;;;;;0.43;100.00;99273.36;109572;1251;66195;-73
2023/11/19 02:36:09;;;;;;;45.50;32.20;;;;;;;0.38;100.00;99265.08;109611;1251;61418;-73
2023/11/19 02:38:36;;;;;;;43.20;31.50;;;;;;;0.34;100.00;99259.92;109568;1251;65261;-73
2023/11/19 02:41:05;;;;;;;47.10;34.30;;;;;;;0.30;100.00;99254.06;109597;1251;58779;-73
2023/11/19 02:43:33;;;;;;;50.00;34.90;;;;;;;0.25;100.00;99249.81;109451;1251;58348;-73
2023/11/19 02:46:10;;;;;;;45.30;31.80;;;;;;;0.18;100.00;99248.17;109508;1253;65132;-73
2023/11/19 02:48:37;;;;;;;43.40;31.80;;;;;;;0.14;100.00;99242.35;109586;1251;58931;-73
2023/11/19 02:51:04;;;;;;;42.40;30.30;;;;;;;0.11;100.00;99238.89;109604;1251;62765;-73
2023/11/19 02:53:31;;;;;;;42.60;29.90;;;;;;;0.10;100.00;99228.79;109638;1251;58171;-73
2023/11/19 02:56:06;;;;;;;45.90;32.20;;;;;;;0.09;100.00;99218.69;109631;1251;58222;-73
2023/11/19 02:58:33;;;;;;;43.30;33.50;;;;;;;0.06;100.00;99211.76;109614;1251;66770;-73
2023/11/19 03:01:10;;;;;;;50.50;39.80;;;;;;;0.02;100.00;99212.73;109605;1251;59531;-73
2023/11/19 03:03:40;;;;;;;53.10;38.40;;;;;;;-0.04;100.00;99217.73;108565;1251;1002549;-73
2023/11/19 03:06:09;;;;;;;47.60;33.80;;;;;;;-0.09;100.00;99217.31;109577;1251;58190;-73
2023/11/19 03:08:36;;;;;;;44.70;31.20;;;;;;;-0.15;100.00;99206.44;109617;1251;58259;-73
2023/11/19 03:11:04;;;;;;;45.50;32.90;;;;;;;-0.20;100.00;99187.15;109571;1251;66194;-73
2023/11/19 03:13:31;;;;;;;48.10;34.40;;;;;;;-0.24;100.00;99181.80;109566;1253;61361;-73
2023/11/19 03:15:57;;;;;;;47.80;32.50;;;;;;;-0.25;100.00;99193.20;109594;1251;62879;-73
2023/11/19 03:18:24;;;;;;;42.90;33.20;;;;;;;-0.26;100.00;99196.00;109539;1251;58132;-73
2023/11/19 03:20:52;;;;;;;49.60;33.30;;;;;;;-0.27;100.00;99198.98;109632;1253;58271;-73
2023/11/19 03:23:18;;;;;;;47.10;32.80;;;;;;;-0.30;100.00;99197.30;109407;1251;65733;-74
2023/11/19 03:25:45;;;;;;;45.50;33.40;;;;;;;-0.33;100.00;99193.52;109595;1251;58212;-73
2023/11/19 03:28:11;;;;;;;47.10;32.90;;;;;;;-0.38;100.00;99190.13;109592;1251;73863;-74
2023/11/19 03:30:38;;;;;;;44.40;31.40;;;;;;;-0.40;100.00;99186.87;109656;1251;58170;-73
2023/11/19 03:33:05;;;;;;;44.80;31.80;;;;;;;-0.45;100.00;99177.69;109597;1251;58074;-72
2023/11/19 03:35:32;;;;;;;50.80;35.20;;;;;;;-0.48;100.00;99165.88;109629;1252;64957;-74
2023/11/19 03:37:59;;;;;;;50.30;33.40;;;;;;;-0.52;100.00;99160.55;109587;1251;60112;-72
2023/11/19 03:40:26;;;;;;;44.50;32.50;;;;;;;-0.55;100.00;99162.19;109527;1251;63717;-73
2023/11/19 03:42:52;;;;;;;49.60;34.10;;;;;;;-0.59;100.00;99164.01;109589;1251;58230;-72
2023/11/19 03:45:19;;;;;;;49.50;34.10;;;;;;;-0.63;100.00;99165.11;109639;1251;58291;-73
2023/11/19 03:47:45;;;;;;;48.50;33.20;;;;;;;-0.66;100.00;99167.11;109542;1252;65260;-73
2023/11/19 03:50:12;;;;;;;46.40;32.30;;;;;;;-0.68;100.00;99169.94;109547;1252;58627;-73
2023/11/19 03:52:38;;;;;;;47.40;32.70;;;;;;;-0.69;100.00;99162.77;109320;1252;64594;-72
2023/11/19 03:55:05;;;;;;;48.30;35.00;;;;;;;-0.69;100.00;99140.79;109564;1253;58100;-72
2023/11/19 03:57:32;;;;;;;53.00;33.90;;;;;;;-0.66;100.00;99120.17;109215;1251;58298;-72
2023/11/19 03:59:58;;;;;;;51.00;32.80;;;;;;;-0.64;100.00;99115.94;109565;1253;66371;-73
2023/11/19 04:02:27;;;;;;;48.20;34.20;;;;;;;-0.63;100.00;99111.21;109600;1252;68981;-73
2023/11/19 04:04:55;;;;;;;46.30;31.50;;;;;;;-0.63;100.00;99112.60;109587;1252;63972;-73
2023/11/19 04:07:21;;;;;;;51.80;35.90;;;;;;;-0.64;100.00;99108.78;109606;1252;58162;-72
2023/11/19 04:09:48;;;;;;;50.10;35.70;;;;;;;-0.64;100.00;99104.77;109648;1253;58174;-71
2023/11/19 04:12:15;;;;;;;51.00;37.00;;;;;;;-0.65;100.00;99099.73;109584;1251;65241;-72
2023/11/19 04:14:41;;;;;;;51.80;36.60;;;;;;;-0.64;100.00;99097.45;109592;1252;58954;-72
2023/11/19 04:17:08;;;;;;;47.00;34.70;;;;;;;-0.61;100.00;99090.23;109562;1252;72950;-71
2023/11/19 04:19:34;;;;;;;53.30;34.70;;;;;;;-0.60;100.00;99079.75;109548;1253;58219;-73
2023/11/19 04:22:01;;;;;;;53.40;36.00;;;;;;;-0.58;100.00;99078.48;109565;1253;58249;-72
2023/11/19 04:24:28;;;;;;;53.90;36.80;;;;;;;-0.55;100.00;99079.11;109607;1253;65331;-72
2023/11/19 04:26:54;;;;;;;55.40;36.90;;;;;;;-0.52;100.00;99087.08;109617;1252;59037;-72
2023/11/19 04:29:21;;;;;;;54.60;35.50;;;;;;;-0.51;100.00;99087.05;109594;1251;64093;-72
2023/11/19 04:31:47;;;;;;;50.00;35.90;;;;;;;-0.48;100.00;99080.53;108784;1254;1002978;-72
2023/11/19 04:34:14;;;;;;;54.10;37.10;;;;;;;-0.46;100.00;99077.70;109579;1252;58094;-72
2023/11/19 04:36:40;;;;;;;53.40;37.20;;;;;;;-0.46;100.00;99079.27;109325;1252;58563;-72
2023/11/19 04:39:15;;;;;;;52.70;36.60;;;;;;;-0.47;100.00;99073.36;108880;1253;1002090;-72
2023/11/19 04:41:49;;;;;;;49.30;35.60;;;;;;;-0.49;100.00;99068.34;109631;1252;64089;-72
2023/11/19 04:44:16;;;;;;;55.50;36.40;;;;;;;-0.51;100.00;99068.05;109501;1252;59951;-72
2023/11/19 04:46:45;;;;;;;54.80;38.50;;;;;;;-0.54;100.00;99066.18;109595;1253;58077;-72
2023/11/19 04:49:13;;;;;;;55.80;39.20;;;;;;;-0.57;100.00;99061.71;109595;1251;63878;-72
2023/11/19 04:51:41;;;;;;;54.10;37.90;;;;;;;-0.61;100.00;99060.73;109579;1251;58811;-73
2023/11/19 04:54:08;;;;;;;56.60;38.90;;;;;;;-0.66;100.00;99062.77;108053;1251;1002669;-71
2023/11/19 04:56:39;;;;;;;54.00;38.20;;;;;;;-0.71;100.00;99061.98;109557;1252;58138;-71
2023/11/19 04:59:06;;;;;;;52.60;37.10;;;;;;;-0.74;100.00;99062.58;109552;1252;58147;-72
2023/11/19 05:01:33;;;;;;;54.40;38.30;;;;;;;-0.77;100.00;99064.22;109567;1253;66167;-72
2023/11/19 05:04:01;;;;;;;62.00;43.00;;;;;;;-0.80;100.00;99057.99;109415;1252;59990;-72
2023/11/19 05:06:29;;;;;;;59.50;42.10;;;;;;;-0.81;100.00;99053.66;109584;1252;63714;-72
2023/11/19 05:08:56;;;;;;;53.10;39.50;;;;;;;-0.82;100.00;99053.14;109640;1251;58119;-72
2023/11/19 05:11:23;;;;;;;57.50;38.90;;;;;;;-0.83;100.00;99052.28;109290;1252;58270;-72
2023/11/19 05:13:50;;;;;;;57.90;39.30;;;;;;;-0.84;100.00;99046.73;109572;1252;65327;-72
2023/11/19 05:16:17;;;;;;;55.60;39.70;;;;;;;-0.84;100.00;99042.36;109117;1251;316627;-72
2023/11/19 05:18:44;;;;;;;58.90;42.40;;;;;;;-0.83;100.00;99045.66;109548;1252;62631;-72
2023/11/19 05:21:11;;;;;;;59.00;40.30;;;;;;;-0.82;100.00;99050.35;109570;1252;58348;-72
2023/11/19 05:23:37;;;;;;;56.20;39.60;;;;;;;-0.81;100.00;99047.91;109574;1254;58169;-72
2023/11/19 05:26:04;;;;;;;63.30;45.40;;;;;;;-0.80;100.00;99047.52;109629;1252;66500;-73
2023/11/19 05:28:31;;;;;;;67.40;46.50;;;;;;;-0.78;100.00;99043.81;109623;1252;60042;-73
2023/11/19 05:30:57;;;;;;;57.30;42.00;;;;;;;-0.75;100.00;99036.42;109584;1251;64143;-72
2023/11/19 05:33:24;;;;;;;59.40;44.20;;;;;;;-0.74;100.00;99028.55;109528;1253;58126;-73
2023/11/19 05:35:51;;;;;;;63.00;42.30;;;;;;;-0.70;100.00;99019.92;109590;1253;58251;-73
2023/11/19 05:38:17;;;;;;;89.60;60.60;;;;;;;-0.67;100.00;99012.19;109577;1252;65215;-73
2023/11/19 05:40:44;;;;;;;93.20;63.80;;;;;;;-0.66;100.00;99007.11;109186;1252;58907;-72
2023/11/19 05:43:10;;;;;;;71.60;49.80;;;;;;;-0.64;100.00;99001.48;109566;1252;64039;-73
2023/11/19 05:45:37;;;;;;;60.20;42.80;;;;;;;-0.63;100.00;98999.02;109627;1251;58202;-73
2023/11/19 05:48:04;;;;;;;58.00;40.00;;;;;;;-0.63;100.00;98999.21;109573;1252;58121;-73
2023/11/19 05:50:31;;;;;;;51.00;35.80;;;;;;;-0.65;100.00;98997.15;109567;1252;65278;-73
2023/11/19 05:52:57;;;;;;;51.90;36.70;;;;;;;-0.67;100.00;98991.60;109521;1254;58878;-73
2023/11/19 05:55:24;;;;;;;47.30;33.00;;;;;;;-0.70;100.00;98985.73;109563;1253;62845;-73
2023/11/19 05:57:51;;;;;;;50.50;34.40;;;;;;;-0.73;100.00;98985.45;109528;1252;58103;-73
2023/11/19 06:00:18;;;;;;;59.60;38.10;;;;;;;-0.74;100.00;98988.95;109629;1252;58061;-73
2023/11/19 06:02:45;;;;;;;56.60;38.00;;;;;;;-0.72;100.00;99000.60;109628;1253;58638;-73
2023/11/19 06:05:11;;;;;;;57.70;39.20;;;;;;;-0.70;100.00;99010.14;109585;1252;59871;-73
2023/11/19 06:07:39;;;;;;;58.90;42.20;;;;;;;-0.67;100.00;99015.48;109585;1252;63749;-72
2023/11/19 06:10:06;;;;;;;59.00;41.00;;;;;;;-0.63;100.00;99018.57;109598;1252;58166;-73
2023/11/19 06:12:38;;;;;;;60.70;41.60;;;;;;;-0.59;100.00;99012.02;109566;1253;58599;-73
2023/11/19 06:15:06;;;;;;;61.80;41.20;;;;;;;-0.55;100.00;98998.50;109609;1252;65225;-73
2023/11/19 06:17:32;;;;;;;65.70;44.50;;;;;;;-0.50;100.00;98998.54;109591;1251;58627;-73
2023/11/19 06:19:59;;;;;;;67.60;48.10;;;;;;;-0.43;100.00;99001.53;109560;1252;63851;-73
2023/11/19 06:22:25;;;;;;;65.50;45.90;;;;;;;-0.35;100.00;99006.77;109586;1251;58143;-73
2023/11/19 06:24:52;;;;;;;64.30;44.50;;;;;;;-0.29;100.00;99003.84;109607;1252;58207;-73
2023/11/19 06:27:19;;;;;;;62.60;43.80;;;;;;;-0.24;100.00;99000.92;109277;1251;58677;-73
2023/11/19 06:29:46;;;;;;;67.30;47.50;;;;;;;-0.19;100.00;98992.27;109558;1251;59885;-73
2023/11/19 06:32:12;;;;;;;70.30;49.80;;;;;;;-0.13;100.00;98984.09;109594;1254;58184;-73
2023/11/19 06:34:39;;;;;;;86.90;58.20;;;;;;;-0.06;100.00;98980.09;109176;1253;58193;-73
2023/11/19 06:37:05;;;;;;;84.90;58.40;;;;;;;0.00;100.00;98973.13;109638;1252;58128;-72
2023/11/19 06:39:32;;;;;;;82.50;56.10;;;;;;;0.07;100.00;98964.93;109553;1251;63694;-75
2023/11/19 06:41:58;;;;;;;88.00;58.20;;;;;;;0.14;100.00;98954.77;109584;1251;58251;-73
2023/11/19 06:44:25;;;;;;;79.10;53.20;;;;;;;0.22;100.00;98947.23;109352;1254;58465;-73
2023/11/19 06:46:51;;;;;;;68.60;46.30;;;;;;;0.31;100.00;98942.46;109562;1252;58127;-73
2023/11/19 06:49:18;;;;;;;66.80;43.70;;;;;;;0.39;100.00;98933.69;109570;1254;58508;-73
2023/11/19 06:51:46;;;;;;;64.10;43.90;;;;;;;0.48;100.00;98927.35;109599;1251;58508;-73
2023/11/19 06:54:12;;;;;;;63.20;43.70;;;;;;;0.57;100.00;98922.54;108829;1254;1002398;-73
2023/11/19 06:56:39;;;;;;;59.00;41.80;;;;;;;0.66;100.00;98924.04;109579;1251;63750;-73
2023/11/19 06:59:05;;;;;;;69.40;47.50;;;;;;;0.74;100.00;98924.00;109645;1252;58168;-73
2023/11/19 07:01:36;;;;;;;68.70;47.30;;;;;;;0.80;100.00;98923.13;109574;1253;58304;-73
2023/11/19 07:04:08;;;;;;;66.70;49.40;;;;;;;0.87;100.00;98925.71;109590;1252;66172;-73
2023/11/19 07:06:35;;;;;;;66.70;46.00;;;;;;;0.95;100.00;98925.48;109341;1252;59027;-74
2023/11/19 07:09:11;;;;;;;72.00;49.20;;;;;;;1.02;100.00;98918.80;109587;1252;64173;-74
2023/11/19 07:11:39;;;;;;;61.00;45.30;;;;;;;1.09;100.00;98914.74;109562;1252;58208;-73
2023/11/19 07:14:07;;;;;;;67.30;48.50;;;;;;;1.15;100.00;98914.93;109545;1253;58184;-73
2023/11/19 07:16:34;;;;;;;69.50;48.80;;;;;;;1.19;100.00;98909.71;109497;1253;63697;-74
2023/11/19 07:19:01;;;;;;;66.20;47.00;;;;;;;1.24;100.00;98907.82;109599;1251;59154;-74
2023/11/19 07:21:28;;;;;;;61.00;44.20;;;;;;;1.29;100.00;98919.75;109604;1253;64047;-73
2023/11/19 07:23:55;;;;;;;61.40;44.30;;;;;;;1.33;100.00;98930.63;108814;1254;1002277;-73
2023/11/19 07:26:22;;;;;;;61.50;43.00;;;;;;;1.37;100.00;98917.23;109586;1251;58956;-73
2023/11/19 07:28:51;;;;;;;69.00;50.60;;;;;;;1.39;100.00;98896.50;109600;1252;64045;-74
2023/11/19 07:31:21;;;;;;;74.90;53.20;;;;;;;1.43;100.00;98897.09;109628;1253;60120;-73
2023/11/19 07:33:48;;;;;;;66.00;47.60;;;;;;;1.45;100.00;98912.78;109543;1253;63750;-73
2023/11/19 07:36:14;;;;;;;56.60;42.30;;;;;;;1.48;100.00;98916.89;109585;1253;58211;-73
2023/11/19 07:38:41;;;;;;;58.30;45.20;;;;;;;1.51;100.00;98908.05;109301;1254;58214;-73
2023/11/19 07:41:12;;;;;;;59.00;42.70;;;;;;;1.52;100.00;98908.70;109386;1252;63639;-73
2023/11/19 07:43:46;;;;;;;66.00;48.40;;;;;;;1.56;100.00;98907.89;109578;1252;60044;-74
2023/11/19 07:46:13;;;;;;;64.20;49.00;;;;;;;1.62;100.00;98902.27;109556;1253;64114;-74
2023/11/19 07:48:40;;;;;;;65.40;47.00;;;;;;;1.67;100.00;98895.61;109369;1253;58447;-74
2023/11/19 07:51:07;;;;;;;56.20;42.00;;;;;;;1.73;100.00;98890.36;109562;1252;59422;-74
2023/11/19 07:53:34;;;;;;;58.30;44.10;;;;;;;1.78;100.00;98894.77;109558;1253;65602;-74
2023/11/19 07:56:01;;;;;;;57.70;43.30;;;;;;;1.84;100.00;98896.83;109593;1251;60999;-74
2023/11/19 07:58:27;;;;;;;54.80;41.50;;;;;;;1.91;100.00;98892.55;109569;1252;64070;-74
2023/11/19 08:00:54;;;;;;;49.80;40.50;;;;;;;1.99;100.00;98883.37;109525;1252;58142;-74
2023/11/19 08:03:21;;;;;;;58.80;43.00;;;;;;;2.07;100.00;98864.34;109298;1253;58455;-74
2023/11/19 08:05:48;;;;;;;56.90;43.60;;;;;;;2.15;100.00;98851.60;109581;1251;66310;-74
2023/11/19 08:08:15;;;;;;;66.60;47.50;;;;;;;2.22;100.00;98844.20;109592;1252;60100;-74
2023/11/19 08:10:41;;;;;;;75.10;55.20;;;;;;;2.25;100.00;98846.89;109582;1252;64177;-74
2023/11/19 08:13:08;;;;;;;80.70;61.90;;;;;;;2.30;100.00;98836.86;109565;1254;58135;-74
2023/11/19 08:15:34;;;;;;;90.60;74.40;;;;;;;2.37;100.00;98822.95;109546;1253;58242;-74
2023/11/19 08:18:01;;;;;;;83.60;65.80;;;;;;;2.44;100.00;98814.27;109572;1251;58508;-74
2023/11/19 08:20:28;;;;;;;69.40;55.00;;;;;;;2.54;100.00;98814.62;109592;1253;59001;-74
2023/11/19 08:22:55;;;;;;;60.00;47.60;;;;;;;2.60;100.00;98817.71;109576;1252;62501;-74
2023/11/19 08:25:21;;;;;;;62.50;48.60;;;;;;;2.61;100.00;98819.78;108773;1251;1002258;-74
2023/11/19 08:27:48;;;;;;;64.50;52.30;;;;;;;2.62;100.00;98812.72;109579;1253;58149;-74
2023/11/19 08:30:14;;;;;;;60.50;49.70;;;;;;;2.67;100.00;98810.80;109609;1251;58163;-74
2023/11/19 08:32:41;;;;;;;64.90;50.10;;;;;;;2.73;100.00;98815.83;109589;1252;59859;-74
2023/11/19 08:35:08;;;;;;;63.90;50.00;;;;;;;2.76;100.00;98824.49;109515;1253;63065;-74
2023/11/19 08:37:36;;;;;;;58.60;43.90;;;;;;;2.78;100.00;98823.89;109617;1252;58253;-74
2023/11/19 08:40:04;;;;;;;57.40;42.20;;;;;;;2.78;100.00;98821.23;109608;1252;58029;-74
2023/11/19 08:42:31;;;;;;;53.70;42.70;;;;;;;2.80;100.00;98814.51;109584;1252;64906;-74
2023/11/19 08:44:57;;;;;;;53.30;42.20;;;;;;;2.78;100.00;98816.17;109618;1254;59876;-74
2023/11/19 08:47:24;;;;;;;52.10;38.20;;;;;;;2.76;100.00;98815.19;109380;1254;58236;-74
2023/11/19 08:49:52;;;;;;;49.80;38.30;;;;;;;2.76;100.00;98811.83;109587;1252;58069;-74
2023/11/19 08:52:18;;;;;;;51.30;39.90;;;;;;;2.78;100.00;98805.10;109599;1253;58340;-74
2023/11/19 08:54:45;;;;;;;52.90;44.10;;;;;;;2.75;100.00;98794.35;109544;1251;65286;-74
2023/11/19 08:57:12;;;;;;;56.80;46.80;;;;;;;2.73;100.00;98794.41;109593;1253;58183;-74
2023/11/19 08:59:38;;;;;;;50.40;40.60;;;;;;;2.74;100.00;98794.05;109583;1252;63352;-75
2023/11/19 09:02:06;;;;;;;51.70;37.90;;;;;;;2.75;100.00;98797.51;109574;1254;58159;-74
2023/11/19 09:04:33;;;;;;;47.10;36.40;;;;;;;2.75;100.00;98792.08;109594;1253;58201;-73
2023/11/19 09:06:59;;;;;;;50.80;39.10;;;;;;;2.78;100.00;98786.66;109215;1252;65032;-74
2023/11/19 09:09:26;;;;;;;51.20;39.60;;;;;;;2.83;100.00;98786.11;109579;1252;58175;-74
2023/11/19 09:11:53;;;;;;;57.00;44.40;;;;;;;2.89;100.00;98782.20;109293;1253;63765;-74
2023/11/19 09:14:24;;;;;;;50.90;40.70;;;;;;;2.96;100.00;98775.11;109585;1251;58142;-74
2023/11/19 09:16:50;;;;;;;71.50;56.80;;;;;;;2.98;100.00;98762.90;109197;1252;58214;-73
2023/11/19 09:19:17;;;;;;;58.50;46.80;;;;;;;3.02;100.00;98755.56;109568;1254;65392;-73
2023/11/19 09:21:44;;;;;;;57.50;45.90;;;;;;;3.07;100.00;98742.53;109596;1254;59843;-73
2023/11/19 09:24:10;;;;;;;54.80;45.30;;;;;;;3.15;100.00;98727.47;109597;1252;64262;-73
2023/11/19 09:26:39;;;;;;;54.10;43.20;;;;;;;3.26;100.00;98727.39;109525;1253;58173;-73
2023/11/19 09:29:06;;;;;;;48.10;37.90;;;;;;;3.40;100.00;98726.64;109508;1252;59240;-73
2023/11/19 09:31:32;;;;;;;45.20;36.80;;;;;;;3.51;100.00;98731.41;109556;1252;64116;-73
2023/11/19 09:33:59;;;;;;;48.00;37.90;;;;;;;3.64;100.00;98736.11;109403;1254;58226;-73
2023/11/19 09:36:25;;;;;;;47.10;36.10;;;;;;;3.74;100.00;98735.16;109630;1253;58174;-73
2023/11/19 09:38:52;;;;;;;44.80;33.50;;;;;;;3.82;100.00;98729.23;109579;1252;58138;-73
2023/11/19 09:41:19;;;;;;;42.00;33.20;;;;;;;3.87;100.00;98720.55;109521;1253;58249;-74
2023/11/19 09:43:46;;;;;;;47.40;37.70;;;;;;;3.91;100.00;98720.02;109298;1254;64030;-74
2023/11/19 09:46:16;;;;;;;47.00;36.80;;;;;;;3.93;100.00;98718.17;109593;1252;60175;-74
2023/11/19 09:48:44;;;;;;;45.00;34.30;;;;;;;3.97;100.00;98710.27;109595;1254;64105;-74
2023/11/19 09:51:11;;;;;;;41.10;30.80;;;;;;;4.03;100.00;98701.23;109576;1253;58167;-73
2023/11/19 09:53:38;;;;;;;44.70;33.40;;;;;;;4.12;100.00;98693.79;109588;1253;58050;-74
2023/11/19 09:56:05;;;;;;;44.60;33.00;;;;;;;4.25;100.00;98684.91;109563;1251;65193;-73
2023/11/19 09:58:32;;;;;;;37.80;31.00;;;;;;;4.40;100.00;98673.66;109313;1254;60154;-74
2023/11/19 10:01:00;;;;;;;40.40;31.20;;;;;;;4.52;100.00;98671.86;109563;1252;64071;-74
2023/11/19 10:03:29;;;;;;;39.50;30.40;;;;;;;4.61;100.00;98663.86;109580;1253;58189;-74
2023/11/19 10:05:56;;;;;;;41.30;30.90;;;;;;;4.71;100.00;98657.57;109582;1253;58338;-74
2023/11/19 10:08:23;;;;;;;46.80;34.70;;;;;;;4.79;100.00;98652.61;109570;1254;65281;-74
2023/11/19 10:10:50;;;;;;;43.90;33.40;;;;;;;4.90;100.00;98645.40;109553;1254;60317;-74
2023/11/19 10:13:16;;;;;;;44.60;33.80;;;;;;;4.98;100.00;98640.92;109576;1253;63731;-73
2023/11/19 10:15:43;;;;;;;45.20;33.80;;;;;;;5.11;100.00;98632.04;109610;1253;58215;-74
2023/11/19 10:18:10;;;;;;;40.90;33.50;;;;;;;5.19;100.00;98624.89;109629;1254;58518;-73
2023/11/19 10:20:37;;;;;;;43.60;32.60;;;;;;;5.28;100.00;98619.36;109576;1251;63714;-74
2023/11/19 10:23:03;;;;;;;37.60;28.30;;;;;;;5.33;100.00;98611.52;109593;1254;60014;-74
2023/11/19 10:25:32;;;;;;;35.90;29.20;;;;;;;5.38;100.00;98601.95;109525;1252;64076;-74
2023/11/19 10:28:00;;;;;;;35.70;29.10;;;;;;;5.46;100.00;98595.84;109583;1252;58145;-74
2023/11/19 10:30:29;;;;;;;40.00;30.30;;;;;;;5.59;100.00;98592.90;109572;1253;58190;-73
2023/11/19 10:33:17;;;;;;;31.40;25.30;;;;;;;5.69;100.00;98589.86;109529;1251;72589;-73
2023/11/19 10:36:11;;;;;;;38.20;29.70;;;;;;;5.81;100.00;98590.47;109609;1251;60157;-74
2023/11/19 10:38:39;;;;;;;35.30;27.30;;;;;;;5.86;100.00;98582.99;109013;1259;64177;-74
2023/11/19 10:41:06;;;;;;;39.40;30.70;;;;;;;5.91;100.00;98579.56;109019;1258;58187;-73
2023/11/19 10:43:44;;;;;;;110.40;79.40;;;;;;;5.96;100.00;98582.98;108964;1259;58219;-73
2023/11/19 10:46:12;;;;;;;40.50;30.20;;;;;;;5.95;100.00;98578.81;109038;1259;65505;-74
2023/11/19 10:48:40;;;;;;;39.10;31.40;;;;;;;5.90;100.00;98573.92;109015;1260;59023;-75
2023/11/19 10:51:07;;;;;;;28.10;23.70;;;;;;;5.83;100.00;98561.82;108869;1260;64991;-74
2023/11/19 10:53:37;;;;;;;25.30;19.70;;;;;;;5.74;100.00;98555.42;109005;1260;58251;-74
2023/11/19 10:56:08;;;;;;;25.90;20.40;;;;;;;5.67;100.00;98547.35;108873;1259;58285;-74
2023/11/19 10:58:37;;;;;;;24.20;19.60;;;;;;;5.64;100.00;98540.13;109032;1258;65265;-74
2023/11/19 11:01:20;;;;;;;24.80;21.90;;;;;;;5.66;100.00;98533.80;108986;1262;60010;-72
2023/11/19 11:03:47;;;;;;;20.40;15.90;;;;;;;5.70;100.00;98529.02;108996;1260;65317;-73
2023/11/19 11:06:14;;;;;;;19.20;15.60;;;;;;;5.72;100.00;98530.34;108922;1259;58277;-73
2023/11/19 11:08:42;;;;;;;16.50;11.80;;;;;;;5.71;100.00;98525.77;108858;1259;58277;-72